Time;durP1;ratioP1;P1;durP2;ratioP2;P2;SDS_P1;SDS_P2;PMS_P1;PMS_P2;Temp;Humidity;BMP_temperature;BMP_pressure;BME280_temperature;BME280_humidity;BME280_pressure;Samples;Min_cycle;Max_cycle;Signal;HPM_P1;HPM_P2
2022/04/01 00:00:46;;;;;;;29.30;26.98;;;6.30;92.30;;;;;;5052459;28;20656;-73
2022/04/01 00:03:13;;;;;;;30.25;27.85;;;6.30;92.10;;;;;;5052534;28;20301;-73
2022/04/01 00:05:41;;;;;;;29.50;27.20;;;6.50;91.10;;;;;;5052771;28;20248;-73
2022/04/01 00:08:09;;;;;;;28.90;26.77;;;6.40;90.50;;;;;;5052471;28;20582;-73
2022/04/01 00:10:36;;;;;;;30.35;28.00;;;6.20;90.90;;;;;;5052426;28;20207;-73
2022/04/01 00:13:04;;;;;;;29.45;27.15;;;6.10;91.70;;;;;;5052595;28;20226;-73
2022/04/01 00:15:32;;;;;;;28.30;26.02;;;6.20;91.90;;;;;;5052585;28;20575;-73
2022/04/01 00:18:00;;;;;;;27.85;25.65;;;6.10;92.70;;;;;;5052514;28;20655;-73
2022/04/01 00:20:27;;;;;;;28.05;25.85;;;6.10;93.20;;;;;;5052372;28;20671;-73
2022/04/01 00:22:55;;;;;;;28.52;26.48;;;6.30;92.50;;;;;;5052535;28;20221;-73
2022/04/01 00:25:22;;;;;;;27.23;25.23;;;6.40;91.60;;;;;;5052327;28;20201;-73
2022/04/01 00:27:50;;;;;;;28.20;25.92;;;6.30;91.80;;;;;;5052308;28;20205;-73
2022/04/01 00:30:18;;;;;;;29.05;26.83;;;6.30;91.50;;;;;;5052245;28;20199;-73
2022/04/01 00:32:45;;;;;;;28.63;26.42;;;6.20;91.70;;;;;;5052455;28;20226;-73
2022/04/01 00:35:12;;;;;;;28.70;26.40;;;6.20;92.20;;;;;;5056032;28;20289;-73
2022/04/01 00:37:40;;;;;;;30.38;27.92;;;6.20;91.60;;;;;;5058878;28;20194;-73
2022/04/01 00:40:09;;;;;;;28.02;25.92;;;6.20;91.90;;;;;;5058793;28;20255;-73
2022/04/01 00:42:36;;;;;;;27.77;25.67;;;6.10;91.60;;;;;;5058964;28;20357;-73
2022/04/01 00:45:04;;;;;;;28.90;26.70;;;6.00;92.60;;;;;;5058873;28;20674;-73
2022/04/01 00:47:32;;;;;;;29.13;26.73;;;6.20;92.70;;;;;;5058845;28;20203;-73
2022/04/01 00:49:59;;;;;;;28.48;26.13;;;6.20;92.70;;;;;;5058774;28;20259;-73
2022/04/01 00:52:26;;;;;;;29.02;26.63;;;6.20;92.50;;;;;;5058800;28;20236;-73
2022/04/01 00:54:53;;;;;;;29.38;27.05;;;6.40;92.10;;;;;;5058796;28;20285;-73
2022/04/01 00:57:21;;;;;;;28.55;26.25;;;6.30;91.40;;;;;;5058809;28;20203;-73
2022/04/01 00:59:50;;;;;;;29.30;27.10;;;6.20;91.70;;;;;;5058558;28;20673;-73
2022/04/01 01:02:17;;;;;;;28.10;25.77;;;6.20;91.80;;;;;;5058566;28;20236;-73
2022/04/01 01:04:46;;;;;;;27.90;25.80;;;6.00;92.00;;;;;;5058589;28;20293;-73
2022/04/01 01:07:14;;;;;;;29.25;26.95;;;5.70;93.50;;;;;;5058633;28;20555;-73
2022/04/01 01:09:42;;;;;;;30.40;27.90;;;5.80;93.70;;;;;;5058641;28;20208;-73
2022/04/01 01:12:11;;;;;;;27.98;25.85;;;5.90;94.10;;;;;;5058999;28;20217;-74
2022/04/01 01:14:40;;;;;;;30.05;27.60;;;5.90;93.90;;;;;;5058710;28;20200;-73
2022/04/01 01:17:10;;;;;;;27.95;25.83;;;5.90;93.70;;;;;;5058729;28;20202;-73
2022/04/01 01:19:37;;;;;;;29.13;26.83;;;5.80;93.20;;;;;;5058487;28;20681;-73
2022/04/01 01:22:06;;;;;;;29.20;26.90;;;5.80;93.70;;;;;;5058680;28;20597;-73
2022/04/01 01:24:35;;;;;;;27.70;25.48;;;5.80;93.60;;;;;;5058546;28;20292;-73
2022/04/01 01:27:05;;;;;;;29.13;26.42;;;5.90;93.50;;;;;;5058681;28;20201;-73
2022/04/01 01:29:34;;;;;;;28.30;26.25;;;5.90;93.20;;;;;;5058447;28;20205;-73
2022/04/01 01:32:03;;;;;;;29.70;27.30;;;5.90;92.50;;;;;;5058396;28;20202;-73
2022/04/01 01:34:32;;;;;;;27.08;25.17;;;6.10;91.90;;;;;;5058625;28;20201;-73
2022/04/01 01:37:00;;;;;;;26.67;24.77;;;6.10;90.10;;;;;;5058559;28;20201;-73
2022/04/01 01:39:27;;;;;;;28.67;26.48;;;6.10;89.90;;;;;;5058395;28;20196;-73
2022/04/01 01:41:56;;;;;;;29.10;26.90;;;5.90;91.30;;;;;;5058311;28;20288;-73
2022/04/01 01:44:24;;;;;;;27.73;25.65;;;5.90;91.40;;;;;;5058494;28;20551;-73
2022/04/01 01:46:52;;;;;;;26.95;25.05;;;6.00;90.50;;;;;;5055436;28;20206;-73
2022/04/01 01:49:21;;;;;;;27.02;25.10;;;5.90;90.30;;;;;;5055129;28;20197;-73
2022/04/01 01:54:50;;;;;;;27.42;25.42;;;5.80;90.80;;;;;;5055355;28;20318;-73
2022/04/01 01:57:20;;;;;;;26.25;24.27;;;5.70;91.40;;;;;;5055493;28;20201;-73
2022/04/01 01:59:48;;;;;;;28.25;26.25;;;5.70;91.60;;;;;;5055392;28;20593;-73
2022/04/01 02:02:15;;;;;;;28.95;26.85;;;5.80;91.60;;;;;;5054794;28;20221;-73
2022/04/01 02:04:43;;;;;;;28.75;26.55;;;5.70;91.50;;;;;;5054900;28;20211;-73
2022/04/01 02:07:11;;;;;;;27.45;25.35;;;5.70;91.40;;;;;;5054726;28;20202;-73
2022/04/01 02:09:38;;;;;;;26.13;24.33;;;5.60;92.20;;;;;;5054662;28;20292;-73
2022/04/01 02:12:06;;;;;;;28.02;25.83;;;5.50;91.50;;;;;;5054734;28;20212;-73
2022/04/01 02:14:36;;;;;;;28.70;26.65;;;5.40;92.10;;;;;;5054641;28;20307;-73
2022/04/01 02:17:03;;;;;;;28.83;26.73;;;5.20;92.70;;;;;;5054712;28;20200;-73
2022/04/01 02:19:31;;;;;;;27.75;25.75;;;5.20;93.20;;;;;;5054508;28;20204;-73
2022/04/01 02:21:58;;;;;;;30.08;27.75;;;5.20;93.60;;;;;;5054626;28;20201;-73
2022/04/01 02:24:25;;;;;;;28.60;26.48;;;5.40;93.40;;;;;;5054663;28;20684;-73
2022/04/01 02:26:52;;;;;;;29.77;27.38;;;5.40;93.30;;;;;;5054545;28;20193;-73
2022/04/01 02:29:21;;;;;;;28.75;26.45;;;5.50;93.20;;;;;;5054240;28;20207;-73
2022/04/01 02:31:51;;;;;;;28.85;26.75;;;5.40;92.60;;;;;;5054745;28;20208;-73
2022/04/01 02:34:18;;;;;;;30.08;27.83;;;5.40;93.20;;;;;;5054260;28;20243;-73
2022/04/01 02:36:45;;;;;;;28.05;25.85;;;5.30;93.10;;;;;;5054405;28;20704;-73
2022/04/01 02:39:12;;;;;;;29.48;27.27;;;5.20;93.30;;;;;;5054142;28;20197;-73
2022/04/01 02:41:39;;;;;;;29.92;27.73;;;5.20;93.00;;;;;;5054319;28;20204;-73
2022/04/01 02:44:09;;;;;;;28.83;26.77;;;5.20;93.90;;;;;;5054393;28;20272;-73
2022/04/01 02:46:37;;;;;;;29.33;27.23;;;5.40;93.90;;;;;;5054511;28;20202;-73
2022/04/01 02:49:08;;;;;;;30.92;28.63;;;5.30;93.50;;;;;;5054090;28;20201;-73
2022/04/01 02:51:37;;;;;;;29.08;26.85;;;5.40;92.90;;;;;;5062532;22;20217;-73
2022/04/01 02:54:06;;;;;;;27.70;25.70;;;5.30;93.00;;;;;;5053799;28;20225;-73
2022/04/01 02:56:34;;;;;;;29.63;27.38;;;5.20;93.50;;;;;;5053810;28;20671;-73
2022/04/01 02:59:02;;;;;;;30.77;28.27;;;5.20;93.90;;;;;;5053698;28;20629;-73
2022/04/01 03:01:30;;;;;;;31.10;28.70;;;5.40;93.50;;;;;;5053479;28;20292;-73
2022/04/01 03:03:58;;;;;;;29.95;27.75;;;5.40;92.70;;;;;;5053889;28;20685;-73
2022/04/01 03:06:27;;;;;;;31.52;29.17;;;5.30;92.70;;;;;;5053718;28;20220;-73
2022/04/01 03:08:53;;;;;;;30.60;28.00;;;5.40;92.60;;;;;;5053743;28;20284;-73
2022/04/01 03:11:20;;;;;;;32.03;29.45;;;5.30;92.70;;;;;;5053506;28;20283;-73
2022/04/01 03:13:47;;;;;;;31.83;29.30;;;5.10;93.40;;;;;;5053553;28;20274;-73
2022/04/01 03:16:14;;;;;;;31.05;28.40;;;5.00;93.70;;;;;;5053583;28;20197;-73
2022/04/01 03:18:41;;;;;;;33.05;30.27;;;5.00;94.30;;;;;;5053496;28;20737;-73
2022/04/01 03:21:10;;;;;;;31.35;28.95;;;5.00;94.40;;;;;;5053328;28;20197;-73
2022/04/01 03:23:40;;;;;;;30.33;28.00;;;5.10;94.10;;;;;;5053464;28;20216;-73
2022/04/01 03:26:07;;;;;;;32.10;29.77;;;5.10;94.00;;;;;;5053299;28;20202;-73
2022/04/01 03:28:35;;;;;;;33.85;31.15;;;5.10;93.60;;;;;;5053096;28;20283;-73
2022/04/01 03:31:04;;;;;;;31.95;29.63;;;5.00;93.90;;;;;;5053156;28;20204;-73
2022/04/01 03:33:32;;;;;;;31.13;28.63;;;4.90;94.70;;;;;;5053176;28;20225;-73
2022/04/01 03:35:59;;;;;;;33.50;30.70;;;5.00;95.30;;;;;;5053296;28;20209;-73
2022/04/01 03:38:26;;;;;;;33.55;30.75;;;5.00;95.20;;;;;;5053159;28;20318;-73
2022/04/01 03:40:55;;;;;;;36.75;33.70;;;5.10;95.30;;;;;;5052902;28;20211;-73
2022/04/01 03:43:25;;;;;;;38.58;35.28;;;4.90;95.60;;;;;;5053137;28;20209;-73
2022/04/01 03:45:54;;;;;;;35.38;32.38;;;4.80;96.60;;;;;;5053099;28;20280;-73
2022/04/01 03:48:28;;;;;;;36.90;33.70;;;4.80;96.60;;;;;;5052931;28;20547;-73
2022/04/01 03:50:57;;;;;;;38.28;34.88;;;4.80;97.00;;;;;;5052731;28;20205;-73
2022/04/01 03:53:27;;;;;;;34.83;32.10;;;4.90;96.90;;;;;;5052889;28;20247;-73
2022/04/01 03:55:57;;;;;;;33.90;30.83;;;5.00;96.40;;;;;;5052855;28;20560;-73
2022/04/01 03:58:29;;;;;;;33.95;31.13;;;4.90;95.50;;;;;;5052914;28;20200;-73
2022/04/01 04:01:00;;;;;;;35.13;32.30;;;4.80;96.20;;;;;;5052583;28;20193;-73
2022/04/01 04:03:29;;;;;;;35.63;32.53;;;4.80;96.40;;;;;;5052853;28;20256;-73
2022/04/01 04:05:57;;;;;;;32.47;29.83;;;4.80;96.20;;;;;;5052700;28;20212;-73
2022/04/01 04:08:25;;;;;;;34.13;31.45;;;4.90;95.80;;;;;;5052647;28;20731;-73
2022/04/01 04:10:52;;;;;;;31.45;28.95;;;4.90;94.90;;;;;;5051997;28;20199;-73
2022/04/01 04:13:25;;;;;;;31.58;29.08;;;4.70;94.90;;;;;;5052543;28;20684;-73
2022/04/01 04:16:04;;;;;;;31.50;28.90;;;4.60;95.70;;;;;;5052737;28;20205;-73
2022/04/01 04:18:41;;;;;;;32.33;29.83;;;4.60;95.60;;;;;;5052591;28;20203;-73
2022/04/01 04:21:12;;;;;;;32.17;29.48;;;4.70;96.10;;;;;;5052488;28;20223;-73
2022/04/01 04:23:45;;;;;;;30.95;28.55;;;4.70;95.50;;;;;;5052759;28;20220;-73
2022/04/01 04:26:15;;;;;;;31.42;28.92;;;4.60;95.70;;;;;;5052574;28;20665;-73
2022/04/01 04:28:49;;;;;;;32.95;30.17;;;4.50;95.70;;;;;;5052518;28;20196;-73
2022/04/01 04:31:26;;;;;;;30.73;28.30;;;4.50;96.10;;;;;;5052589;28;20196;-73
2022/04/01 04:33:56;;;;;;;31.02;28.60;;;4.60;95.60;;;;;;5052507;28;20830;-73
2022/04/01 04:36:30;;;;;;;31.00;28.33;;;4.60;95.20;;;;;;5052615;28;20351;-73
2022/04/01 04:38:58;;;;;;;32.42;29.63;;;4.60;95.40;;;;;;5052214;28;20198;-73
2022/04/01 04:41:26;;;;;;;33.50;30.85;;;4.50;95.50;;;;;;5052104;28;20192;-73
2022/04/01 04:43:55;;;;;;;71.40;31.70;;;4.40;95.60;;;;;;5052501;28;20299;-73
2022/04/01 04:46:23;;;;;;;30.30;27.80;;;4.40;96.60;;;;;;5052351;28;20284;-73
2022/04/01 04:48:51;;;;;;;31.08;28.65;;;4.50;96.00;;;;;;5052157;28;20726;-73
2022/04/01 04:51:24;;;;;;;30.02;27.63;;;4.50;96.00;;;;;;5052070;28;20274;-73
2022/04/01 04:53:52;;;;;;;32.88;30.27;;;4.60;95.70;;;;;;5052071;28;20263;-73
2022/04/01 04:56:19;;;;;;;31.20;28.63;;;4.50;95.70;;;;;;5052212;28;20254;-73
2022/04/01 04:58:47;;;;;;;30.45;28.05;;;4.50;95.80;;;;;;5052283;28;20207;-73
2022/04/01 05:01:32;;;;;;;30.42;28.05;;;4.40;95.50;;;;;;5051878;28;20201;-72
2022/04/01 05:04:13;;;;;;;33.75;31.00;;;4.40;96.10;;;;;;5052310;28;20681;-73
2022/04/01 05:06:49;;;;;;;32.50;29.67;;;4.50;95.60;;;;;;5051998;28;20650;-73
2022/04/01 05:09:26;;;;;;;30.42;27.95;;;4.40;95.10;;;;;;5051975;28;20197;-73
2022/04/01 05:12:01;;;;;;;32.30;29.67;;;4.20;94.90;;;;;;5052066;28;20199;-73
2022/04/01 05:14:39;;;;;;;31.05;28.63;;;4.20;95.00;;;;;;5052090;28;20230;-73
2022/04/01 05:17:15;;;;;;;31.17;28.73;;;4.10;95.50;;;;;;5051942;28;20210;-73
2022/04/01 05:19:56;;;;;;;31.90;29.40;;;4.00;95.40;;;;;;5052163;28;20235;-73
2022/04/01 05:22:31;;;;;;;30.60;28.20;;;4.00;95.80;;;;;;5054345;28;20223;-73
2022/04/01 05:25:01;;;;;;;29.67;27.48;;;4.00;94.90;;;;;;5055725;28;20719;-73
2022/04/01 05:27:30;;;;;;;32.72;30.20;;;4.10;95.40;;;;;;5055733;28;20200;-74
2022/04/01 05:30:05;;;;;;;29.58;27.38;;;4.10;95.60;;;;;;5055507;28;20203;-75
2022/04/01 05:32:39;;;;;;;31.55;28.88;;;4.00;95.20;;;;;;5055370;28;20306;-74
2022/04/01 05:35:07;;;;;;;31.02;28.67;;;4.10;95.10;;;;;;5055573;28;20227;-73
2022/04/01 05:37:35;;;;;;;33.25;30.70;;;4.00;95.20;;;;;;5055530;28;20201;-73
2022/04/01 05:40:05;;;;;;;32.05;29.58;;;3.90;95.40;;;;;;5055372;28;20642;-74
2022/04/01 05:42:33;;;;;;;31.90;29.27;;;4.00;95.50;;;;;;5055476;28;20231;-74
2022/04/01 05:45:00;;;;;;;31.98;29.38;;;4.10;95.30;;;;;;5055501;28;20655;-73
2022/04/01 05:47:30;;;;;;;33.03;30.42;;;4.00;95.30;;;;;;5055371;28;20196;-73
2022/04/01 05:50:00;;;;;;;32.53;29.83;;;4.00;95.10;;;;;;5055391;28;20200;-74
2022/04/01 05:52:29;;;;;;;30.58;27.98;;;4.10;95.10;;;;;;5054972;28;20251;-74
2022/04/01 05:54:57;;;;;;;28.70;26.58;;;4.00;94.60;;;;;;5055025;28;20574;-74
2022/04/01 05:57:24;;;;;;;30.63;28.33;;;3.90;95.10;;;;;;5055095;28;20638;-74
2022/04/01 05:59:51;;;;;;;29.75;27.58;;;4.00;95.30;;;;;;5054954;28;20729;-75
2022/04/01 06:02:37;;;;;;;31.63;29.33;;;3.90;94.70;;;;;;5054789;28;20251;-75
2022/04/01 06:05:18;;;;;;;31.55;29.02;;;3.90;94.90;;;;;;5054992;28;20208;-75
2022/04/01 06:07:52;;;;;;;31.85;29.48;;;4.00;95.10;;;;;;5054869;28;20232;-75
2022/04/01 06:10:24;;;;;;;30.48;28.23;;;4.00;95.10;;;;;;5054867;28;20197;-74
2022/04/01 06:13:07;;;;;;;32.53;30.02;;;3.90;94.40;;;;;;5054859;28;20231;-74
2022/04/01 06:15:41;;;;;;;32.25;29.80;;;3.80;95.10;;;;;;5054642;28;20581;-73
2022/04/01 06:18:30;;;;;;;32.47;29.98;;;3.80;95.40;;;;;;5054735;28;20200;-73
2022/04/01 06:21:03;;;;;;;33.95;31.45;;;3.70;95.10;;;;;;5054630;28;20203;-73
2022/04/01 06:23:43;;;;;;;31.38;28.88;;;3.70;95.40;;;;;;5054470;28;20223;-74
2022/04/01 06:26:14;;;;;;;50.60;32.15;;;3.80;95.30;;;;;;5054685;28;20665;-74
2022/04/01 06:28:50;;;;;;;32.47;29.85;;;3.90;95.40;;;;;;5054693;28;20657;-73
2022/04/01 06:31:22;;;;;;;33.05;30.45;;;3.90;94.80;;;;;;5054478;28;20279;-73
2022/04/01 06:34:02;;;;;;;31.98;29.58;;;3.80;94.90;;;;;;5053741;28;20221;-73
2022/04/01 06:36:38;;;;;;;34.13;31.52;;;3.80;94.40;;;;;;5054405;28;20683;-73
2022/04/01 06:39:06;;;;;;;33.88;31.17;;;3.90;93.90;;;;;;5054268;28;20713;-73
2022/04/01 06:41:44;;;;;;;32.95;30.15;;;3.90;94.50;;;;;;5054167;28;20292;-74
2022/04/01 06:44:11;;;;;;;34.20;31.50;;;4.00;94.40;;;;;;5054345;28;20224;-74
2022/04/01 06:46:38;;;;;;;33.80;31.02;;;3.90;94.40;;;;;;5054159;28;20204;-73
2022/04/01 06:49:08;;;;;;;30.55;28.25;;;4.10;94.10;;;;;;5054143;28;20200;-74
2022/04/01 06:51:38;;;;;;;32.83;30.23;;;4.00;93.50;;;;;;5053944;28;20266;-73
2022/04/01 06:54:05;;;;;;;33.05;30.45;;;4.10;93.40;;;;;;5054049;28;20216;-74
2022/04/01 06:56:33;;;;;;;30.77;28.35;;;4.00;93.70;;;;;;5054021;28;20197;-74
2022/04/01 06:59:00;;;;;;;33.10;29.90;;;4.00;92.80;;;;;;5053986;28;20669;-74
2022/04/01 07:01:27;;;;;;;34.53;31.15;;;4.00;92.70;;;;;;5053650;28;20499;-74
2022/04/01 07:03:53;;;;;;;31.13;28.77;;;3.90;93.60;;;;;;5054095;28;20242;-74
2022/04/01 07:06:22;;;;;;;31.88;29.50;;;4.00;93.60;;;;;;5053703;28;20604;-73
2022/04/01 07:08:51;;;;;;;34.08;31.38;;;4.00;93.10;;;;;;5053878;28;20231;-74
2022/04/01 07:11:18;;;;;;;32.25;29.67;;;3.90;92.60;;;;;;5053529;28;20533;-74
2022/04/01 07:13:45;;;;;;;34.03;31.35;;;3.80;93.00;;;;;;5053696;28;20274;-73
2022/04/01 07:16:14;;;;;;;35.10;32.40;;;3.60;93.70;;;;;;5053594;28;20280;-73
2022/04/01 07:18:41;;;;;;;33.85;31.15;;;3.60;94.20;;;;;;5053619;28;20193;-73
2022/04/01 07:21:08;;;;;;;33.17;30.80;;;3.80;94.80;;;;;;5053331;28;20199;-74
2022/04/01 07:23:36;;;;;;;35.50;32.50;;;3.70;94.60;;;;;;5053515;28;20217;-73
2022/04/01 07:26:05;;;;;;;33.92;31.30;;;3.80;94.00;;;;;;5053371;28;20223;-73
2022/04/01 07:28:32;;;;;;;34.13;31.60;;;4.00;94.50;;;;;;5053326;28;20199;-73
2022/04/01 07:32:28;;;;;;;34.80;32.25;;;4.00;93.50;;;;;;5053199;28;20201;-74
2022/04/01 07:33:46;;;;;;;35.03;32.25;;;3.80;92.80;;;;;;5053101;28;20228;-73
2022/04/01 07:36:13;;;;;;;34.28;31.73;;;3.80;93.80;;;;;;5053325;28;20224;-73
2022/04/01 07:38:40;;;;;;;33.88;31.17;;;3.70;93.50;;;;;;5053098;28;20634;-73
2022/04/01 07:41:08;;;;;;;34.08;31.55;;;3.60;93.70;;;;;;5052979;28;20250;-73
2022/04/01 07:43:36;;;;;;;34.60;31.90;;;3.50;94.10;;;;;;5052843;28;20217;-73
2022/04/01 07:46:03;;;;;;;32.50;30.10;;;3.60;94.20;;;;;;5052625;28;20339;-73
2022/04/01 07:48:30;;;;;;;35.25;32.55;;;3.50;94.70;;;;;;5053073;28;20192;-73
2022/04/01 07:50:57;;;;;;;34.17;31.58;;;3.60;95.00;;;;;;5052682;28;20205;-73
2022/04/01 07:53:24;;;;;;;35.50;32.60;;;3.70;94.10;;;;;;5053165;28;20220;-73
2022/04/01 07:55:51;;;;;;;36.22;33.33;;;3.80;94.30;;;;;;5052949;28;20404;-73
2022/04/01 07:58:19;;;;;;;37.30;34.40;;;3.80;93.90;;;;;;5052872;28;20197;-73
2022/04/01 08:00:46;;;;;;;33.85;31.35;;;4.00;93.00;;;;;;5052694;28;20200;-73
2022/04/01 08:03:14;;;;;;;33.53;30.98;;;4.00;92.60;;;;;;5052538;28;20223;-73
2022/04/01 08:05:41;;;;;;;35.88;33.08;;;4.00;92.80;;;;;;5052763;28;20222;-74
2022/04/01 08:08:08;;;;;;;33.50;30.75;;;3.80;93.60;;;;;;5052344;28;20192;-74
2022/04/01 08:10:35;;;;;;;33.50;30.90;;;3.70;93.70;;;;;;5052522;28;20200;-73
2022/04/01 08:13:02;;;;;;;35.92;33.03;;;3.90;94.30;;;;;;5052524;28;20213;-74
2022/04/01 08:15:30;;;;;;;35.58;32.85;;;4.00;93.70;;;;;;5052603;28;20788;-74
2022/04/01 08:17:57;;;;;;;34.00;31.30;;;4.10;93.60;;;;;;5052562;28;20197;-74
2022/04/01 08:20:24;;;;;;;34.10;31.48;;;4.00;92.60;;;;;;5052374;28;20653;-74
2022/04/01 08:22:51;;;;;;;34.28;31.63;;;3.90;93.40;;;;;;5052492;28;20296;-73
2022/04/01 08:25:18;;;;;;;35.90;33.15;;;3.80;93.40;;;;;;5052351;28;20204;-73
2022/04/01 08:27:44;;;;;;;34.15;31.45;;;4.00;93.50;;;;;;5052598;28;20196;-73
2022/04/01 08:30:12;;;;;;;34.65;31.75;;;4.00;92.80;;;;;;5052322;28;20240;-73
2022/04/01 08:32:40;;;;;;;34.67;31.92;;;3.90;93.50;;;;;;5052408;28;20693;-73
2022/04/01 08:35:08;;;;;;;35.72;32.92;;;3.90;93.60;;;;;;5052217;28;20249;-74
2022/04/01 08:37:35;;;;;;;35.78;33.08;;;3.90;93.60;;;;;;5052318;28;20203;-73
2022/04/01 08:40:04;;;;;;;35.50;32.50;;;4.10;93.30;;;;;;5052285;28;20731;-74
2022/04/01 08:42:32;;;;;;;35.03;32.33;;;4.20;92.90;;;;;;5052401;28;20223;-74
2022/04/01 08:45:02;;;;;;;34.00;31.35;;;3.90;91.60;;;;;;5052407;28;20222;-73
2022/04/01 08:47:29;;;;;;;34.17;31.63;;;3.70;93.70;;;;;;5052175;28;20201;-74
2022/04/01 08:49:57;;;;;;;32.60;30.20;;;3.70;94.20;;;;;;5052012;28;20192;-73
2022/04/01 08:52:24;;;;;;;33.83;31.10;;;3.90;93.90;;;;;;5052093;28;20232;-74
2022/04/01 08:54:51;;;;;;;31.42;29.02;;;4.10;93.10;;;;;;5052147;28;20212;-73
2022/04/01 08:57:18;;;;;;;33.55;30.75;;;4.10;91.80;;;;;;5056003;28;20284;-73
2022/04/01 08:59:45;;;;;;;33.67;31.08;;;4.00;92.90;;;;;;5056159;28;20612;-74
2022/04/01 09:02:12;;;;;;;33.30;30.77;;;3.90;92.30;;;;;;5055779;28;20604;-73
2022/04/01 09:04:39;;;;;;;30.67;28.38;;;4.00;92.70;;;;;;5056194;28;20201;-73
2022/04/01 09:07:15;;;;;;;32.75;30.15;;;4.00;92.90;;;;;;5055999;28;20201;-73
2022/04/01 09:09:42;;;;;;;32.00;29.60;;;4.00;93.20;;;;;;5055931;28;20279;-74
2022/04/01 09:12:12;;;;;;;30.58;28.25;;;3.90;92.90;;;;;;5055935;28;20217;-74
2022/04/01 09:14:40;;;;;;;30.48;28.17;;;3.80;93.30;;;;;;5055816;28;20204;-73
2022/04/01 09:17:10;;;;;;;30.48;28.17;;;3.80;93.90;;;;;;5055983;28;20200;-73
2022/04/01 09:19:38;;;;;;;32.25;29.80;;;3.90;94.30;;;;;;5055683;28;20299;-74
2022/04/01 09:22:24;;;;;;;30.90;28.50;;;3.90;93.20;;;;;;5055859;28;20274;-73
2022/04/01 09:24:55;;;;;;;31.70;29.20;;;3.80;93.80;;;;;;5055541;28;20193;-73
2022/04/01 09:27:41;;;;;;;30.42;28.23;;;3.90;93.40;;;;;;5055827;28;20197;-73
2022/04/01 09:30:10;;;;;;;29.50;27.40;;;3.70;93.70;;;;;;5055496;28;20203;-73
2022/04/01 09:32:38;;;;;;;31.73;29.33;;;3.80;93.40;;;;;;5055581;28;20278;-73
2022/04/01 09:35:07;;;;;;;30.58;28.38;;;3.70;93.60;;;;;;5055461;28;20311;-73
2022/04/01 09:37:40;;;;;;;29.15;26.92;;;3.50;94.10;;;;;;5055548;28;20561;-73
2022/04/01 09:40:08;;;;;;;32.17;29.80;;;3.60;94.00;;;;;;5055342;28;20283;-73
2022/04/01 09:42:36;;;;;;;30.58;28.38;;;3.70;94.10;;;;;;5055317;28;20697;-73
2022/04/01 09:45:03;;;;;;;29.70;27.40;;;3.60;93.80;;;;;;5055483;28;20197;-73
2022/04/01 09:47:36;;;;;;;31.70;29.40;;;3.70;93.80;;;;;;5055253;28;20200;-73
2022/04/01 09:50:10;;;;;;;29.85;27.60;;;3.80;93.90;;;;;;5055300;28;20201;-73
2022/04/01 09:52:39;;;;;;;31.70;29.50;;;4.00;93.30;;;;;;5055192;28;20243;-73
2022/04/01 09:55:07;;;;;;;30.67;28.27;;;4.10;92.60;;;;;;5055186;28;20221;-73
2022/04/01 09:57:36;;;;;;;31.42;29.15;;;4.30;92.60;;;;;;5055162;28;20197;-74
2022/04/01 10:00:06;;;;;;;29.73;27.52;;;4.40;92.10;;;;;;5054933;28;20192;-73
2022/04/01 10:02:33;;;;;;;29.67;27.45;;;4.40;90.60;;;;;;5054646;28;20221;-73
2022/04/01 10:05:00;;;;;;;29.73;27.67;;;4.30;91.70;;;;;;5055206;28;20205;-74
2022/04/01 10:07:30;;;;;;;29.92;27.50;;;4.40;91.80;;;;;;5053999;28;20214;-74
2022/04/01 10:09:58;;;;;;;29.08;27.08;;;4.50;91.30;;;;;;5054948;28;20199;-73
2022/04/01 10:12:28;;;;;;;28.85;26.85;;;4.40;90.40;;;;;;5055049;28;20231;-73
2022/04/01 10:14:58;;;;;;;29.58;27.35;;;4.40;91.00;;;;;;5054619;28;20280;-73
2022/04/01 10:17:29;;;;;;;27.00;25.08;;;4.40;91.50;;;;;;5055085;28;20288;-73
2022/04/01 10:19:59;;;;;;;30.30;28.30;;;4.40;90.60;;;;;;5054801;28;20201;-73
2022/04/01 10:22:27;;;;;;;28.67;26.67;;;4.30;91.00;;;;;;5055043;28;20223;-73
2022/04/01 10:25:03;;;;;;;27.33;25.52;;;4.40;90.30;;;;;;5055031;28;20211;-73
2022/04/01 10:27:37;;;;;;;24.73;23.23;;;4.30;90.50;;;;;;5054769;28;20206;-73
2022/04/01 10:30:05;;;;;;;25.38;23.77;;;4.10;90.50;;;;;;5054571;28;20228;-73
2022/04/01 10:32:39;;;;;;;26.50;24.73;;;3.80;91.90;;;;;;5054504;28;20267;-74
2022/04/01 10:35:08;;;;;;;24.05;22.45;;;3.90;92.50;;;;;;5054460;28;20209;-74
2022/04/01 10:37:36;;;;;;;24.02;22.60;;;3.80;91.90;;;;;;5054412;28;20283;-74
2022/04/01 10:40:15;;;;;;;23.20;21.80;;;4.00;92.40;;;;;;5054201;28;20666;-74
2022/04/01 10:42:43;;;;;;;21.58;20.27;;;4.00;91.40;;;;;;5054567;28;20220;-73
2022/04/01 10:45:25;;;;;;;23.65;22.25;;;4.10;91.70;;;;;;5054428;28;20550;-73
2022/04/01 10:53:39;;;;;;;20.88;19.73;;;4.50;90.00;;;;;;5054340;28;20219;-74
2022/04/01 10:56:32;;;;;;;22.35;21.15;;;4.40;89.70;;;;;;5053882;28;20216;-74
2022/04/01 10:59:10;;;;;;;21.33;20.15;;;4.40;89.70;;;;;;5053864;28;20207;-74
2022/04/01 11:01:38;;;;;;;20.38;19.27;;;4.30;89.70;;;;;;5053952;28;20358;-74
2022/04/01 11:04:27;;;;;;;22.02;20.80;;;4.20;89.80;;;;;;5054285;28;20227;-74
2022/04/01 11:06:56;;;;;;;23.45;22.05;;;4.20;89.40;;;;;;5053611;28;20212;-73
2022/04/01 11:09:40;;;;;;;24.27;22.83;;;4.10;89.80;;;;;;5053610;28;20203;-74
2022/04/01 11:12:32;;;;;;;22.30;21.00;;;4.20;91.40;;;;;;5053836;28;20259;-73
2022/04/01 11:15:14;;;;;;;23.50;22.10;;;4.40;91.40;;;;;;5053676;28;20572;-74
2022/04/01 11:18:01;;;;;;;22.42;21.27;;;4.60;90.50;;;;;;5053876;28;20197;-73
2022/04/01 11:20:29;;;;;;;21.83;20.63;;;4.70;89.40;;;;;;5053441;28;20201;-73
2022/04/01 11:23:04;;;;;;;22.45;21.15;;;4.60;88.00;;;;;;5053536;28;20217;-73
2022/04/01 11:25:54;;;;;;;21.75;20.55;;;4.50;88.20;;;;;;5053460;28;20196;-74
2022/04/01 11:28:24;;;;;;;23.23;22.02;;;4.00;89.90;;;;;;5053647;28;20201;-73
2022/04/01 11:31:06;;;;;;;21.90;20.70;;;4.00;91.50;;;;;;5053324;28;20254;-73
2022/04/01 11:33:33;;;;;;;21.90;20.70;;;4.10;90.40;;;;;;5053442;28;20213;-73
2022/04/01 11:36:00;;;;;;;21.85;20.65;;;4.30;90.20;;;;;;5053138;28;20584;-73
2022/04/01 11:38:30;;;;;;;22.80;21.50;;;4.30;89.80;;;;;;5053191;28;20229;-73
2022/04/01 11:41:00;;;;;;;21.85;20.67;;;4.40;89.70;;;;;;5053076;28;20207;-73
2022/04/01 11:43:30;;;;;;;22.20;20.80;;;4.50;89.40;;;;;;5053274;28;20648;-73
2022/04/01 11:46:02;;;;;;;22.88;21.60;;;4.60;88.80;;;;;;5053244;28;20204;-74
2022/04/01 11:48:31;;;;;;;22.77;21.58;;;4.50;88.80;;;;;;5052941;28;20236;-74
2022/04/01 11:51:00;;;;;;;21.33;20.23;;;4.30;89.30;;;;;;5052729;28;20211;-74
2022/04/01 11:53:30;;;;;;;23.20;21.90;;;4.20;90.10;;;;;;5053050;28;20238;-73
2022/04/01 11:55:59;;;;;;;22.05;20.85;;;4.30;90.80;;;;;;5052916;28;20608;-74
2022/04/01 11:58:34;;;;;;;22.08;20.98;;;4.40;89.80;;;;;;5052977;28;20231;-74
2022/04/01 12:01:01;;;;;;;22.05;20.95;;;4.10;88.90;;;;;;5052769;28;20204;-74
2022/04/01 12:03:28;;;;;;;21.85;20.65;;;4.10;90.60;;;;;;5052953;28;20220;-74
2022/04/01 12:08:41;;;;;;;23.15;21.85;;;4.20;89.80;;;;;;5052816;28;20716;-74
2022/04/01 12:08:46;;;;;;;23.40;22.10;;;4.00;89.20;;;;;;5052703;28;20207;-74
2022/04/01 12:11:13;;;;;;;23.05;21.52;;;4.10;89.50;;;;;;5052735;28;20666;-74
2022/04/01 12:13:50;;;;;;;24.75;23.10;;;4.20;89.50;;;;;;5052686;28;20225;-73
2022/04/01 12:16:18;;;;;;;22.50;21.15;;;4.10;90.40;;;;;;5052735;28;20216;-73
2022/04/01 12:18:47;;;;;;;21.20;20.00;;;4.10;91.00;;;;;;5052710;28;20273;-73
2022/04/01 12:21:20;;;;;;;22.80;21.50;;;4.10;91.20;;;;;;5052541;28;20211;-73
2022/04/01 12:23:49;;;;;;;23.65;22.38;;;4.20;90.10;;;;;;5052509;28;20227;-73
2022/04/01 12:26:17;;;;;;;23.35;22.05;;;4.10;89.70;;;;;;5052479;28;20566;-73
2022/04/01 12:28:49;;;;;;;24.90;23.50;;;4.00;89.20;;;;;;5052577;28;20200;-73
2022/04/01 12:31:20;;;;;;;25.55;24.05;;;3.70;90.50;;;;;;5051862;28;20211;-73
2022/04/01 12:33:49;;;;;;;25.88;24.38;;;3.70;90.30;;;;;;5052500;28;20304;-73
2022/04/01 12:36:18;;;;;;;24.73;23.30;;;3.80;90.30;;;;;;5052463;28;20555;-73
2022/04/01 12:39:01;;;;;;;25.20;23.50;;;3.80;89.80;;;;;;5052441;28;20661;-73
2022/04/01 12:41:28;;;;;;;25.55;24.05;;;3.80;90.20;;;;;;5052268;28;20273;-73
2022/04/01 12:43:59;;;;;;;25.58;24.08;;;4.00;89.90;;;;;;5052468;28;20278;-73
2022/04/01 12:46:30;;;;;;;24.98;23.48;;;4.10;89.20;;;;;;5052573;28;20200;-73
2022/04/01 12:48:59;;;;;;;25.55;24.05;;;4.20;88.40;;;;;;5052320;28;20235;-73
2022/04/01 12:51:28;;;;;;;24.73;23.23;;;4.20;88.80;;;;;;5052057;28;20220;-73
2022/04/01 12:54:01;;;;;;;24.60;23.20;;;4.10;89.80;;;;;;5052443;28;20213;-74
2022/04/01 12:56:31;;;;;;;24.40;22.92;;;4.30;89.80;;;;;;5052252;28;20212;-73
2022/04/01 12:59:03;;;;;;;25.48;23.98;;;4.30;89.20;;;;;;5052251;28;20203;-73